Time;durP1;ratioP1;P1;durP2;ratioP2;P2;SDS_P1;SDS_P2;PMS_P1;PMS_P2;Temp;Humidity;BMP_temperature;BMP_pressure;BME280_temperature;BME280_humidity;BME280_pressure;Samples;Min_cycle;Max_cycle;Signal;HPM_P1;HPM_P2
2022/01/12 00:00:05;;;;;;;18.00;11.05;;;;;;;-0.05;68.56;99577.34;5024190;28;20056;-62
2022/01/12 00:02:31;;;;;;;16.45;10.90;;;;;;;-0.48;69.09;99518.28;5020853;28;20025;-62
2022/01/12 00:04:57;;;;;;;18.88;10.20;;;;;;;-0.16;69.39;99574.31;5006706;28;20035;-63
2022/01/12 00:07:23;;;;;;;19.52;11.07;;;;;;;-0.31;70.28;99580.78;5022221;28;20105;-63
2022/01/12 00:09:49;;;;;;;19.40;11.60;;;;;;;-0.24;69.25;99582.22;5006981;28;20116;-62
2022/01/12 00:12:14;;;;;;;14.80;10.60;;;;;;;-0.25;69.74;99589.06;5017280;28;20034;-62
2022/01/12 00:14:40;;;;;;;20.60;11.38;;;;;;;-0.34;69.33;99594.50;5015402;28;20076;-63
2022/01/12 00:17:05;;;;;;;18.50;10.70;;;;;;;-0.23;69.11;99594.13;5017126;28;20107;-63
2022/01/12 00:19:31;;;;;;;17.80;11.52;;;;;;;-0.25;69.14;99588.25;5001015;28;20414;-63
2022/01/12 00:21:57;;;;;;;16.83;11.38;;;;;;;-0.39;69.17;99571.63;5022178;28;20033;-62
2022/01/12 00:24:39;;;;;;;17.88;10.85;;;;;;;-0.25;68.72;99595.91;5022235;28;20108;-63
2022/01/12 00:35:17;;;;;;;14.38;10.15;;;;;;;-0.30;68.96;99596.06;4978942;28;20524;-63
2022/01/12 00:37:42;;;;;;;18.67;11.05;;;;;;;-0.17;68.72;99598.22;5058159;28;20166;-63
2022/01/12 00:40:08;;;;;;;15.98;9.70;;;;;;;-0.39;68.78;99593.81;5025882;28;20017;-63
2022/01/12 00:42:34;;;;;;;18.20;10.65;;;;;;;-0.57;68.12;99558.66;5022591;28;20033;-63
2022/01/12 00:45:02;;;;;;;16.42;10.57;;;;;;;-0.37;68.77;99611.66;5008180;28;20029;-63
2022/01/12 00:47:28;;;;;;;17.77;10.38;;;;;;;-0.46;69.30;99593.19;5023971;28;20025;-64
2022/01/12 00:49:53;;;;;;;13.38;10.13;;;;;;;-0.47;69.48;99611.13;5026129;28;20497;-63
2022/01/12 00:52:18;;;;;;;19.48;11.00;;;;;;;-0.70;69.43;99561.63;4989750;28;20589;-63
2022/01/12 00:54:44;;;;;;;18.52;10.88;;;;;;;-0.42;69.70;99615.22;5024982;28;20087;-63
2022/01/12 00:57:09;;;;;;;16.65;10.40;;;;;;;-0.48;69.05;99612.84;5057125;28;20482;-63
2022/01/12 00:59:35;;;;;;;17.83;10.35;;;;;;;-0.51;69.35;99604.44;5025005;28;20855;-63
2022/01/12 01:02:00;;;;;;;18.48;10.60;;;;;;;-0.48;69.12;99609.47;5005678;28;20025;-63
2022/01/12 01:04:26;;;;;;;17.88;10.25;;;;;;;-0.50;69.24;99614.63;5024225;28;20103;-62
2022/01/12 01:06:52;;;;;;;20.67;9.90;;;;;;;-0.56;70.00;99619.94;5007335;28;20033;-63
2022/01/12 01:09:18;;;;;;;14.98;9.88;;;;;;;-0.47;70.04;99622.19;5016574;28;20617;-63
2022/01/12 01:11:43;;;;;;;15.15;9.73;;;;;;;-0.46;70.20;99630.69;5017708;28;20042;-63
2022/01/12 01:14:22;;;;;;;15.05;9.40;;;;;;;-0.60;70.17;99636.25;5005900;28;20018;-63
2022/01/12 01:17:06;;;;;;;18.35;10.43;;;;;;;-1.07;70.10;99583.22;5029303;28;20052;-63
2022/01/12 01:25:30;;;;;;;15.13;10.23;;;;;;;-1.09;71.47;99596.94;5017384;28;20053;-61
2022/01/12 01:27:48;;;;;;;19.50;9.63;;;;;;;-0.75;71.59;99639.28;5025131;28;20060;-63
2022/01/12 01:30:15;;;;;;;16.17;9.95;;;;;;;-0.56;71.19;99650.59;5025428;28;20029;-63
2022/01/12 01:32:41;;;;;;;18.38;9.98;;;;;;;-0.50;70.62;99647.00;5026508;28;20261;-63
2022/01/12 01:35:07;;;;;;;14.55;9.90;;;;;;;-0.90;70.88;99597.19;5006903;28;20538;-63
2022/01/12 01:37:33;;;;;;;16.20;9.98;;;;;;;-0.60;70.37;99652.41;5007962;28;20026;-63
2022/01/12 01:39:58;;;;;;;17.85;9.70;;;;;;;-1.06;69.92;99582.38;5008492;28;20021;-63
2022/01/12 01:42:38;;;;;;;17.10;9.52;;;;;;;-0.57;70.22;99656.56;5024787;28;20093;-63
2022/01/12 01:53:19;;;;;;;17.38;10.73;;;;;;;-0.59;71.14;99658.34;5024620;28;20091;-63
2022/01/12 01:55:45;;;;;;;16.98;10.45;;;;;;;-0.60;70.35;99649.03;4980094;28;20037;-63
2022/01/12 01:58:11;;;;;;;17.80;10.32;;;;;;;-0.63;71.12;99649.13;5026049;28;20104;-63
2022/01/12 02:00:37;;;;;;;17.17;9.77;;;;;;;-0.64;70.61;99655.94;5021818;28;20140;-63
2022/01/12 02:03:02;;;;;;;15.75;9.35;;;;;;;-0.69;70.56;99634.81;5018606;28;20052;-63
2022/01/12 02:05:28;;;;;;;16.50;9.25;;;;;;;-0.62;70.71;99659.28;4998780;28;20454;-63
2022/01/12 02:07:53;;;;;;;17.38;9.32;;;;;;;-0.60;70.59;99666.91;5022927;28;20107;-63
2022/01/12 02:10:20;;;;;;;15.57;9.18;;;;;;;-0.67;70.56;99657.78;5004067;28;20563;-64
2022/01/12 02:12:46;;;;;;;13.45;8.75;;;;;;;-0.66;70.73;99672.19;5023037;28;20032;-63
2022/01/12 02:15:14;;;;;;;20.17;10.25;;;;;;;-0.76;70.52;99676.75;5025388;28;20025;-64
2022/01/12 02:17:53;;;;;;;14.38;9.18;;;;;;;-0.94;71.68;99677.31;5022823;28;20472;-63
2022/01/12 02:36:58;;;;;;;15.95;9.18;;;;;;;-0.99;70.92;99682.56;5025204;28;20107;-63
2022/01/12 02:42:28;;;;;;;14.68;9.32;;;;;;;-1.23;72.04;99679.84;4976012;28;20043;-63
2022/01/12 02:50:44;;;;;;;13.07;8.02;;;;;;;-1.13;71.44;99689.78;5028288;28;20079;-63
2022/01/12 02:55:55;;;;;;;13.70;8.32;;;;;;;-1.02;71.97;99695.44;5017138;28;20052;-64
2022/01/12 02:58:21;;;;;;;16.10;8.70;;;;;;;-1.03;72.48;99709.91;4988760;28;20152;-63
2022/01/12 03:03:24;;;;;;;17.30;10.02;;;;;;;-1.09;71.75;99699.03;5018781;28;20051;-63
2022/01/12 03:06:02;;;;;;;17.13;10.00;;;;;;;-1.22;71.88;99683.25;5050132;28;20041;-63
2022/01/12 03:08:29;;;;;;;15.68;8.82;;;;;;;-1.32;71.49;99686.94;5043575;28;20037;-63
2022/01/12 03:10:54;;;;;;;14.68;9.70;;;;;;;-1.45;73.04;99707.69;5006524;28;20125;-63
2022/01/12 03:13:21;;;;;;;14.48;8.60;;;;;;;-1.30;72.32;99705.59;4986763;28;20614;-63
2022/01/12 03:15:48;;;;;;;14.32;9.20;;;;;;;-1.31;71.81;99711.59;5006276;28;20025;-63
2022/01/12 03:18:15;;;;;;;15.80;9.90;;;;;;;-1.51;72.25;99661.13;5022014;28;20029;-63
2022/01/12 03:20:41;;;;;;;17.70;10.60;;;;;;;-1.22;72.19;99708.78;5019633;28;20057;-64
2022/01/12 03:23:06;;;;;;;16.83;10.02;;;;;;;-1.12;72.54;99710.16;5005616;28;20052;-64
2022/01/12 03:25:32;;;;;;;17.17;8.98;;;;;;;-1.18;72.64;99718.00;5046160;28;20492;-63
2022/01/12 03:28:01;;;;;;;17.50;9.20;;;;;;;-1.28;73.01;99709.75;5023006;28;20038;-63
2022/01/12 03:30:34;;;;;;;15.43;8.95;;;;;;;-1.34;72.99;99725.25;4973610;28;20050;-62
2022/01/12 03:36:12;;;;;;;14.35;8.93;;;;;;;-1.26;72.46;99713.13;5044998;28;20041;-64
2022/01/12 03:38:36;;;;;;;16.10;9.07;;;;;;;-1.24;72.70;99729.22;5021753;28;20041;-63
2022/01/12 03:41:02;;;;;;;16.95;8.65;;;;;;;-1.28;72.97;99724.25;5024425;28;20040;-63
2022/01/12 03:43:27;;;;;;;15.05;9.13;;;;;;;-1.35;72.87;99731.25;5022825;28;20427;-64
2022/01/12 03:45:53;;;;;;;14.93;9.23;;;;;;;-1.34;73.23;99739.72;4984187;28;20034;-64
2022/01/12 03:48:18;;;;;;;14.25;8.65;;;;;;;-1.19;72.27;99734.19;5018279;28;20108;-64
2022/01/12 03:50:43;;;;;;;14.15;8.98;;;;;;;-1.25;72.41;99731.81;5021994;28;21930;-65
2022/01/12 03:53:09;;;;;;;13.98;8.82;;;;;;;-1.22;72.54;99744.50;5023490;28;20044;-64
2022/01/12 03:55:34;;;;;;;16.45;9.00;;;;;;;-1.23;72.21;99751.31;5020180;28;20459;-64
2022/01/12 03:58:00;;;;;;;17.30;11.38;;;;;;;-1.41;72.32;99751.81;5023002;28;20026;-64
2022/01/12 04:00:25;;;;;;;16.70;11.52;;;;;;;-1.37;73.14;99759.34;5051012;28;20033;-63
2022/01/12 04:02:51;;;;;;;16.38;9.70;;;;;;;-1.37;72.09;99754.25;4980868;28;20517;-64
2022/01/12 04:08:18;;;;;;;14.73;8.82;;;;;;;-1.66;72.17;99698.06;5023576;28;20025;-64
2022/01/12 04:08:20;;;;;;;17.25;9.43;;;;;;;-1.66;73.59;99756.72;5018197;28;20042;-64
2022/01/12 04:10:54;;;;;;;16.73;9.43;;;;;;;-1.56;73.46;99743.69;5027701;28;20048;-64
2022/01/12 04:13:22;;;;;;;13.27;8.52;;;;;;;-1.71;72.95;99710.13;5044439;28;20032;-64
2022/01/12 04:15:50;;;;;;;14.57;8.52;;;;;;;-1.38;73.34;99761.94;5019232;28;20448;-64
2022/01/12 04:18:16;;;;;;;14.82;9.68;;;;;;;-1.51;72.84;99769.09;5013106;28;20021;-63
2022/01/12 04:20:49;;;;;;;15.15;9.13;;;;;;;-1.79;72.84;99713.69;4988021;28;20064;-63
2022/01/12 04:23:21;;;;;;;14.15;8.90;;;;;;;-1.57;73.65;99770.09;5027940;28;20056;-64
2022/01/12 04:25:47;;;;;;;17.63;9.23;;;;;;;-1.49;73.27;99766.50;5060653;28;20065;-64
2022/01/12 04:28:13;;;;;;;14.75;9.00;;;;;;;-1.47;73.50;99770.66;5025603;28;20459;-64
2022/01/12 04:30:39;;;;;;;16.27;8.93;;;;;;;-1.51;73.09;99770.81;5028506;28;20033;-65
2022/01/12 04:33:05;;;;;;;15.20;9.43;;;;;;;-1.85;74.08;99769.94;5009472;28;20079;-64
2022/01/12 04:35:34;;;;;;;14.75;9.02;;;;;;;-1.74;74.04;99772.22;4980089;28;20040;-64
2022/01/12 04:37:59;;;;;;;16.30;8.98;;;;;;;-1.58;74.43;99773.50;5026424;28;20024;-64
2022/01/12 04:40:25;;;;;;;14.38;9.20;;;;;;;-1.73;73.69;99738.19;5025474;28;20029;-63
2022/01/12 04:42:53;;;;;;;14.35;9.05;;;;;;;-1.54;73.41;99761.50;5026960;28;20087;-63
2022/01/12 04:45:36;;;;;;;15.40;9.18;;;;;;;-1.47;73.71;99782.59;5057896;28;20103;-64
2022/01/12 04:48:30;;;;;;;13.13;8.38;;;;;;;-1.52;73.84;99781.88;5023145;28;20111;-63
2022/01/12 04:50:56;;;;;;;14.95;8.80;;;;;;;-1.67;73.73;99771.19;5007283;28;20045;-64
2022/01/12 04:53:22;;;;;;;13.73;8.35;;;;;;;-1.59;74.04;99781.19;5026836;28;20029;-64
2022/01/12 04:55:48;;;;;;;15.45;9.00;;;;;;;-1.65;74.14;99787.28;5022233;28;20056;-64
2022/01/12 04:58:14;;;;;;;17.88;9.43;;;;;;;-1.55;74.71;99796.38;5024341;28;20658;-64
2022/01/12 05:00:41;;;;;;;17.70;9.63;;;;;;;-1.89;73.96;99754.75;5026763;28;20033;-64
2022/01/12 05:13:52;;;;;;;16.00;8.73;;;;;;;-1.54;74.07;99802.31;5024314;28;20031;-63
2022/01/12 05:16:18;;;;;;;18.42;10.23;;;;;;;-1.84;74.67;99741.03;5039390;28;20461;-63
2022/01/12 05:18:45;;;;;;;19.35;9.98;;;;;;;-1.46;74.24;99808.06;5033776;28;20040;-63
2022/01/12 05:21:13;;;;;;;19.48;10.70;;;;;;;-1.48;74.56;99808.97;4991755;28;20612;-60
2022/01/12 05:23:38;;;;;;;17.52;9.85;;;;;;;-1.51;74.85;99815.00;4995359;28;20468;-63
2022/01/12 05:26:05;;;;;;;18.63;10.07;;;;;;;-1.90;75.09;99741.16;5024110;28;20036;-63
2022/01/12 05:28:30;;;;;;;14.90;9.50;;;;;;;-1.44;75.86;99815.66;5026784;28;20056;-63
2022/01/12 05:30:57;;;;;;;13.63;8.90;;;;;;;-1.44;75.50;99810.56;5004792;28;20723;-63
2022/01/12 05:33:24;;;;;;;14.32;9.25;;;;;;;-1.80;76.34;99757.09;5026176;28;20026;-64
2022/01/12 05:35:50;;;;;;;16.20;9.65;;;;;;;-1.43;75.21;99820.72;5024231;28;20692;-62
2022/01/12 05:38:16;;;;;;;16.70;9.55;;;;;;;-1.40;75.97;99823.22;4959015;28;20029;-63
2022/01/12 05:40:45;;;;;;;18.55;9.65;;;;;;;-1.41;75.29;99820.69;5026327;28;20056;-63
2022/01/12 05:43:11;;;;;;;15.52;9.25;;;;;;;-1.35;76.65;99825.66;5024552;28;20037;-63
2022/01/12 05:45:38;;;;;;;13.88;8.73;;;;;;;-1.39;76.45;99824.91;5022469;28;20504;-63
2022/01/12 05:50:36;;;;;;;13.32;8.75;;;;;;;-1.38;76.19;99807.88;5017305;28;20092;-64
2022/01/12 05:53:02;;;;;;;14.57;8.70;;;;;;;-1.32;76.87;99819.63;4982538;28;21187;-64
2022/01/12 05:55:28;;;;;;;14.48;8.75;;;;;;;-1.17;77.75;99837.94;5033217;28;20052;-64
2022/01/12 05:57:53;;;;;;;17.35;9.20;;;;;;;-1.10;78.47;99835.22;5026950;28;20113;-64
2022/01/12 06:00:20;;;;;;;15.18;9.32;;;;;;;-1.17;77.36;99852.38;5024336;28;20053;-64
2022/01/12 06:02:46;;;;;;;16.45;9.38;;;;;;;-1.14;77.54;99828.50;5024962;28;20025;-64
2022/01/12 06:05:14;;;;;;;15.43;8.60;;;;;;;-1.10;77.55;99830.09;5024747;28;20037;-63
2022/01/12 06:07:40;;;;;;;11.80;8.07;;;;;;;-1.03;78.06;99839.28;5022417;28;20080;-64
2022/01/12 06:10:05;;;;;;;12.60;8.43;;;;;;;-1.47;79.48;99780.03;5007226;28;20175;-63
2022/01/12 06:12:31;;;;;;;18.60;9.15;;;;;;;-1.05;79.72;99846.97;5023683;28;20587;-64
2022/01/12 06:14:56;;;;;;;15.82;8.77;;;;;;;-1.47;79.76;99796.19;5026191;28;20052;-64
2022/01/12 06:17:22;;;;;;;13.73;8.38;;;;;;;-1.04;80.27;99848.66;5021554;28;20033;-64
2022/01/12 06:19:48;;;;;;;12.38;7.45;;;;;;;-1.09;80.92;99845.38;5026115;28;20080;-64
2022/01/12 06:22:13;;;;;;;13.63;7.38;;;;;;;-1.01;82.24;99845.16;5021213;28;20030;-64
2022/01/12 06:24:38;;;;;;;12.50;7.45;;;;;;;-1.05;82.95;99795.91;4978864;28;20033;-63
2022/01/12 06:27:04;;;;;;;11.85;7.68;;;;;;;-1.00;82.07;99785.56;5009704;28;20032;-64
2022/01/12 06:32:34;;;;;;;13.70;7.18;;;;;;;-0.31;80.88;99847.44;4979240;28;20053;-64
2022/01/12 06:34:59;;;;;;;15.48;8.30;;;;;;;-0.23;81.58;99852.31;4966658;28;20034;-64
2022/01/12 06:37:25;;;;;;;14.25;8.57;;;;;;;-0.11;80.64;99854.50;4984570;28;20117;-63
2022/01/12 06:39:50;;;;;;;12.32;7.30;;;;;;;-0.05;80.50;99863.72;5016506;28;20033;-63
2022/01/12 06:42:16;;;;;;;14.30;7.95;;;;;;;-0.15;80.38;99863.13;5016818;28;20025;-64
2022/01/12 06:44:41;;;;;;;11.60;6.90;;;;;;;-0.10;80.31;99856.16;5022914;28;20053;-64
2022/01/12 06:47:06;;;;;;;14.48;8.35;;;;;;;-0.41;80.49;99800.03;5016005;28;20030;-64
2022/01/12 06:49:32;;;;;;;11.88;7.00;;;;;;;-0.01;80.09;99866.13;5006500;28;20496;-64
2022/01/12 06:52:00;;;;;;;13.18;6.95;;;;;;;0.01;79.57;99863.50;5005534;28;20060;-63
2022/01/12 06:54:25;;;;;;;10.52;7.15;;;;;;;0.03;79.22;99873.69;5027406;28;20078;-63
2022/01/12 06:56:51;;;;;;;13.77;7.35;;;;;;;-0.01;79.08;99867.84;5021898;28;20037;-63
2022/01/12 06:59:16;;;;;;;13.32;7.43;;;;;;;0.05;79.34;99865.09;5018844;28;20096;-63
2022/01/12 07:01:42;;;;;;;10.80;7.05;;;;;;;0.07;79.26;99870.16;5055507;28;20033;-63
2022/01/12 07:04:07;;;;;;;12.20;7.35;;;;;;;0.06;80.09;99873.63;4974139;28;20701;-63
2022/01/12 07:06:34;;;;;;;11.70;7.47;;;;;;;0.12;78.54;99858.91;4997988;28;20722;-63
2022/01/12 07:08:59;;;;;;;13.90;7.75;;;;;;;0.11;78.30;99867.47;5019428;28;20055;-63
2022/01/12 07:11:25;;;;;;;12.63;7.45;;;;;;;0.09;79.77;99881.19;5017736;28;20471;-63
2022/01/12 07:13:50;;;;;;;10.18;6.07;;;;;;;0.12;79.51;99870.84;5023422;28;20099;-63
2022/01/12 07:16:15;;;;;;;12.27;6.72;;;;;;;0.04;79.67;99870.25;5016384;28;20092;-63
2022/01/12 07:18:41;;;;;;;11.90;5.80;;;;;;;-0.16;79.89;99825.69;5018054;28;20076;-63
2022/01/12 07:21:06;;;;;;;11.52;6.47;;;;;;;0.16;79.50;99901.44;5023985;28;20078;-63
2022/01/12 07:23:32;;;;;;;13.73;6.20;;;;;;;-0.19;79.63;99833.44;5015510;28;20033;-63
2022/01/12 07:25:57;;;;;;;10.98;6.60;;;;;;;0.17;78.91;99887.72;4980361;28;20037;-63
2022/01/12 07:28:23;;;;;;;11.23;6.78;;;;;;;0.16;79.49;99893.75;5020934;28;20037;-63
2022/01/12 07:30:49;;;;;;;10.05;6.22;;;;;;;0.19;79.39;99895.38;5021205;28;20423;-63
2022/01/12 07:33:15;;;;;;;11.45;7.13;;;;;;;0.23;79.31;99896.09;5018949;28;20025;-64
2022/01/12 07:35:41;;;;;;;11.50;7.03;;;;;;;0.18;79.67;99899.66;5019484;28;20085;-63
2022/01/12 07:38:06;;;;;;;10.70;5.93;;;;;;;0.22;79.62;99902.09;5004173;28;20159;-63
2022/01/12 07:40:33;;;;;;;10.80;6.38;;;;;;;0.31;79.74;99894.13;5012268;28;20544;-62
2022/01/12 07:42:59;;;;;;;10.77;6.90;;;;;;;0.36;79.80;99900.78;4987470;28;20064;-63
2022/01/12 07:45:24;;;;;;;11.02;6.22;;;;;;;0.30;79.22;99903.53;5018593;28;20045;-62
2022/01/12 07:47:50;;;;;;;10.07;5.95;;;;;;;-0.04;78.49;99858.56;5018157;28;20040;-63
2022/01/12 07:50:15;;;;;;;12.95;6.90;;;;;;;0.31;78.64;99918.03;5004408;28;20029;-63
2022/01/12 07:52:40;;;;;;;11.27;5.95;;;;;;;0.31;78.60;99923.13;5017513;28;20067;-63
2022/01/12 07:55:07;;;;;;;11.95;5.47;;;;;;;0.33;78.12;99926.47;5020333;28;20658;-63
2022/01/12 07:57:32;;;;;;;10.15;6.03;;;;;;;-0.01;78.35;99878.91;4995429;28;20037;-63
2022/01/12 07:59:58;;;;;;;10.18;5.18;;;;;;;0.33;78.50;99939.28;5001010;28;20041;-63
2022/01/12 08:02:24;;;;;;;9.15;5.47;;;;;;;0.02;78.97;99888.22;5014817;28;20392;-63
2022/01/12 08:04:50;;;;;;;11.23;7.25;;;;;;;0.31;78.68;99935.06;5022543;28;20034;-63
2022/01/12 08:07:15;;;;;;;8.52;5.13;;;;;;;0.36;77.82;99930.66;5012505;28;20029;-63
2022/01/12 08:09:42;;;;;;;10.00;6.43;;;;;;;0.32;77.96;99936.75;5013766;28;20598;-63
2022/01/12 08:12:08;;;;;;;9.65;5.55;;;;;;;0.48;76.51;99937.13;5005096;28;20535;-62
2022/01/12 08:14:34;;;;;;;9.90;5.00;;;;;;;0.50;76.35;99953.25;4982283;28;20599;-62
2022/01/12 08:16:59;;;;;;;9.98;5.45;;;;;;;0.55;76.34;99952.22;5021536;28;20026;-61
2022/01/12 08:19:26;;;;;;;10.63;6.13;;;;;;;0.49;74.93;99952.44;5051728;28;20042;-61
2022/01/12 08:21:52;;;;;;;9.15;4.80;;;;;;;0.54;76.03;99962.50;5023741;28;20040;-61
2022/01/12 08:24:17;;;;;;;11.25;6.93;;;;;;;0.17;75.45;99892.84;5021581;28;20022;-62
2022/01/12 08:26:43;;;;;;;12.73;6.93;;;;;;;0.52;75.32;99961.72;5023172;28;20084;-62
2022/01/12 08:29:11;;;;;;;11.13;6.00;;;;;;;0.53;76.00;99958.25;5002577;28;20033;-62
2022/01/12 08:31:36;;;;;;;12.73;6.78;;;;;;;0.55;75.84;99974.44;5021776;28;20116;-62
2022/01/12 08:34:02;;;;;;;12.05;6.60;;;;;;;0.63;75.03;99963.94;5022457;28;20113;-61
2022/01/12 08:36:28;;;;;;;12.75;6.45;;;;;;;0.57;74.89;99972.66;5004594;28;20151;-62
2022/01/12 08:38:55;;;;;;;10.65;5.90;;;;;;;0.60;74.22;99984.50;5021310;28;20045;-61
2022/01/12 08:41:20;;;;;;;15.50;5.97;;;;;;;0.73;76.14;99984.09;5022188;28;20029;-62
2022/01/12 08:43:46;;;;;;;10.48;6.30;;;;;;;0.70;74.74;99981.63;4999286;28;20532;-61
2022/01/12 08:46:11;;;;;;;7.85;4.47;;;;;;;0.74;74.30;99975.50;4998607;28;20090;-62
2022/01/12 08:48:36;;;;;;;8.77;5.38;;;;;;;0.70;74.67;99979.06;5003113;28;20445;-62
2022/01/12 08:51:02;;;;;;;12.90;7.13;;;;;;;0.31;74.83;99919.72;5016955;28;20021;-62
2022/01/12 08:53:28;;;;;;;11.27;6.60;;;;;;;0.60;75.16;99969.16;5021745;28;20052;-62
2022/01/12 08:55:54;;;;;;;11.57;7.28;;;;;;;0.62;75.00;99975.06;5023210;28;20043;-62
2022/01/12 08:58:19;;;;;;;8.88;5.32;;;;;;;0.64;74.37;99970.72;5024265;28;20045;-62
2022/01/12 09:00:45;;;;;;;11.30;6.68;;;;;;;0.61;74.46;99964.00;5010279;28;20029;-62
2022/01/12 09:03:11;;;;;;;10.52;5.90;;;;;;;0.74;74.88;99975.50;5025932;28;20629;-62
2022/01/12 09:05:36;;;;;;;12.18;6.03;;;;;;;0.74;74.80;99980.63;5024559;28;20064;-62
2022/01/12 09:08:02;;;;;;;10.25;6.47;;;;;;;0.52;75.25;99939.53;5025980;28;20456;-62
2022/01/12 09:10:27;;;;;;;10.65;6.20;;;;;;;0.72;75.18;99956.81;5024353;28;20079;-62
2022/01/12 09:12:53;;;;;;;11.40;6.43;;;;;;;0.83;74.88;99979.50;5037632;28;20036;-62
2022/01/12 09:15:24;;;;;;;12.05;6.53;;;;;;;0.79;74.30;99951.50;4997242;28;20029;-62
2022/01/12 09:17:50;;;;;;;11.27;6.93;;;;;;;0.91;74.58;99980.09;4985856;28;20025;-62
2022/01/12 09:20:15;;;;;;;13.07;6.65;;;;;;;0.90;74.17;99983.53;5019222;28;20032;-63
2022/01/12 09:22:41;;;;;;;12.40;6.68;;;;;;;0.59;74.09;99919.69;5026938;28;20707;-62
2022/01/12 09:25:07;;;;;;;11.23;6.78;;;;;;;0.90;74.02;99980.16;5022912;28;20029;-63
2022/01/12 09:27:33;;;;;;;10.27;6.32;;;;;;;0.61;74.41;99956.31;5025259;28;20041;-62
2022/01/12 09:29:58;;;;;;;12.90;8.00;;;;;;;0.68;73.32;99952.66;5021307;28;20036;-62
2022/01/12 09:32:24;;;;;;;14.00;8.32;;;;;;;0.96;71.54;99995.31;5003422;28;20037;-62
2022/01/12 09:34:49;;;;;;;12.55;7.05;;;;;;;0.72;69.41;99954.25;5013756;28;20108;-62
2022/01/12 09:37:15;;;;;;;10.82;6.28;;;;;;;0.88;70.39;99981.94;5011162;28;20025;-62
2022/01/12 09:39:40;;;;;;;11.32;6.10;;;;;;;1.02;69.71;100005.34;4998197;28;20036;-62
2022/01/12 09:42:06;;;;;;;11.32;6.30;;;;;;;1.04;68.29;100002.72;5010333;28;20041;-62
2022/01/12 09:44:37;;;;;;;10.93;5.85;;;;;;;1.10;67.77;100016.19;5022580;28;20813;-62
2022/01/12 09:47:04;;;;;;;12.02;5.47;;;;;;;1.12;66.74;99996.47;4996379;28;20132;-62
2022/01/12 09:49:30;;;;;;;11.30;6.30;;;;;;;1.08;65.67;99988.97;5014566;28;20030;-62
2022/01/12 09:51:58;;;;;;;11.82;5.47;;;;;;;1.20;64.38;99997.94;5015023;28;20030;-62
2022/01/12 09:54:24;;;;;;;9.48;5.40;;;;;;;1.18;65.40;99992.88;5021753;28;20587;-62
2022/01/12 09:56:50;;;;;;;14.48;5.70;;;;;;;1.19;65.38;100009.94;5011871;28;20037;-62
2022/01/12 09:59:15;;;;;;;12.18;6.15;;;;;;;1.26;63.46;100001.16;5021440;28;20029;-62
2022/01/12 10:01:45;;;;;;;9.32;5.45;;;;;;;1.25;63.25;100002.03;5013152;28;20037;-62
2022/01/12 10:04:18;;;;;;;10.70;5.60;;;;;;;1.32;63.06;100003.50;5020309;28;20040;-62
2022/01/12 10:06:46;;;;;;;9.88;5.25;;;;;;;1.38;64.07;100004.19;5007634;28;20038;-63
2022/01/12 10:09:13;;;;;;;10.38;5.53;;;;;;;1.41;64.29;99996.41;5026873;28;20037;-62
2022/01/12 10:12:04;;;;;;;9.52;5.32;;;;;;;1.48;63.27;100008.13;5025801;28;20124;-62
2022/01/12 10:14:44;;;;;;;10.60;5.65;;;;;;;1.40;62.59;99992.97;4966800;28;21059;-62
2022/01/12 10:17:12;;;;;;;11.73;6.15;;;;;;;1.27;63.19;99968.66;5019028;28;20033;-62
2022/01/12 10:19:37;;;;;;;11.70;6.90;;;;;;;1.28;62.59;99967.78;5006323;28;20034;-63
2022/01/12 10:22:05;;;;;;;13.75;7.18;;;;;;;1.56;62.43;100002.72;5016884;28;20029;-63
2022/01/12 10:24:31;;;;;;;16.10;7.78;;;;;;;1.65;63.78;100016.03;5004419;28;20044;-62
2022/01/12 10:26:57;;;;;;;17.95;8.93;;;;;;;1.67;64.00;100011.69;5017515;28;20025;-63
2022/01/12 10:29:25;;;;;;;12.48;6.40;;;;;;;1.81;62.46;100000.13;4971185;28;20048;-63
2022/01/12 10:31:59;;;;;;;14.20;6.15;;;;;;;1.72;62.36;99994.41;5014473;28;20049;-62
2022/01/12 10:34:30;;;;;;;11.30;5.95;;;;;;;1.77;63.41;99990.84;5049237;28;20056;-62
2022/01/12 10:36:57;;;;;;;11.32;5.65;;;;;;;1.80;63.01;99983.88;5007238;28;20025;-63
2022/01/12 10:39:26;;;;;;;11.70;5.32;;;;;;;1.84;63.06;99988.00;5022030;28;20469;-62
2022/01/12 10:42:00;;;;;;;10.10;5.07;;;;;;;1.93;62.89;99986.81;5017482;28;20029;-62
2022/01/12 10:44:37;;;;;;;12.20;5.25;;;;;;;2.10;60.77;99974.22;4956904;28;20037;-62
2022/01/12 10:47:13;;;;;;;10.95;5.57;;;;;;;2.15;61.06;99962.94;5011084;28;20021;-63
2022/01/12 10:49:41;;;;;;;10.68;5.30;;;;;;;2.07;61.65;99969.19;5013515;28;20038;-62
2022/01/12 10:52:10;;;;;;;10.75;5.18;;;;;;;2.13;61.80;99982.69;5007271;28;20029;-63
2022/01/12 10:55:06;;;;;;;9.40;4.78;;;;;;;2.34;60.39;99976.75;5012807;28;20025;-63
2022/01/12 10:57:34;;;;;;;10.23;6.30;;;;;;;2.34;60.20;99968.19;5020543;28;20040;-63
2022/01/12 11:00:02;;;;;;;12.45;5.68;;;;;;;2.48;59.94;99978.78;5013756;28;20040;-63
2022/01/12 11:02:29;;;;;;;11.65;5.63;;;;;;;2.70;59.74;99968.47;5006106;28;20121;-62
2022/01/12 11:04:56;;;;;;;11.98;5.25;;;;;;;2.42;59.28;99925.09;5038112;28;20080;-63
2022/01/12 11:07:24;;;;;;;11.10;5.43;;;;;;;2.37;58.69;99917.56;5002035;28;20463;-62
2022/01/12 11:09:50;;;;;;;12.52;5.40;;;;;;;2.61;58.15;99958.56;5030325;28;20594;-62
2022/01/12 11:12:16;;;;;;;9.95;5.05;;;;;;;2.74;57.40;99971.75;5015286;28;20029;-63
2022/01/12 11:14:41;;;;;;;10.48;5.38;;;;;;;2.71;55.83;99961.63;5012199;28;20116;-62
2022/01/12 11:17:07;;;;;;;10.18;5.03;;;;;;;2.91;56.01;99960.81;5049973;28;20060;-62
2022/01/12 11:19:33;;;;;;;10.25;4.70;;;;;;;2.87;56.15;99954.97;5013281;28;20036;-62
2022/01/12 11:22:09;;;;;;;8.77;4.78;;;;;;;2.94;54.28;99966.66;5035985;28;20035;-62
2022/01/12 11:24:34;;;;;;;10.15;5.18;;;;;;;2.92;55.02;99962.47;5014742;28;20034;-63
2022/01/12 11:27:03;;;;;;;9.48;5.05;;;;;;;2.91;54.26;99951.38;5020618;28;20121;-63
2022/01/12 11:29:34;;;;;;;10.90;4.53;;;;;;;3.05;53.97;99967.06;5019370;28;20121;-62
2022/01/12 11:32:11;;;;;;;8.00;4.32;;;;;;;3.20;53.03;99968.16;5020078;28;20102;-62
2022/01/12 11:34:37;;;;;;;9.48;4.88;;;;;;;3.08;52.55;99932.66;5025398;28;20034;-62
2022/01/12 11:37:13;;;;;;;11.75;5.53;;;;;;;3.12;53.17;99939.38;5030284;28;20025;-62
2022/01/12 11:39:38;;;;;;;10.65;4.25;;;;;;;3.09;53.05;99942.06;5022706;28;20040;-62
2022/01/12 11:42:04;;;;;;;8.07;4.40;;;;;;;3.13;53.73;99946.16;5018435;28;20030;-62
2022/01/12 11:44:35;;;;;;;9.88;4.22;;;;;;;3.28;53.85;99944.69;5005963;28;20095;-62
2022/01/12 11:47:02;;;;;;;10.20;4.40;;;;;;;3.45;53.91;99952.50;5009518;28;20529;-62
2022/01/12 11:49:42;;;;;;;10.25;4.55;;;;;;;3.50;53.82;99951.47;5030213;28;20494;-63
2022/01/12 11:52:23;;;;;;;10.75;4.57;;;;;;;3.59;54.31;99951.06;5016104;28;20033;-62
2022/01/12 11:54:52;;;;;;;9.80;4.57;;;;;;;3.53;54.87;99936.75;5011277;28;20018;-62
2022/01/12 11:57:32;;;;;;;9.20;4.45;;;;;;;3.33;56.00;99917.03;5027275;28;20025;-63
2022/01/12 12:00:00;;;;;;;;;;;;;;;3.64;55.08;99951.69;5004883;28;20017;-63
2022/01/12 12:02:34;;;;;;;9.43;4.80;;;;;;;3.57;55.46;99935.69;4998818;28;19924;-62
2022/01/12 12:05:06;;;;;;;10.85;4.97;;;;;;;3.70;56.82;99942.88;5007246;28;20033;-62
2022/01/12 12:07:52;;;;;;;13.27;5.15;;;;;;;3.79;57.72;99937.31;5012117;28;20087;-62
2022/01/12 12:10:22;;;;;;;10.25;4.82;;;;;;;3.85;56.39;99945.59;5013887;28;20029;-63
2022/01/12 12:12:50;;;;;;;11.07;5.25;;;;;;;3.62;55.08;99902.06;5045447;28;20033;-62
2022/01/12 12:15:15;;;;;;;11.43;5.15;;;;;;;3.90;54.46;99942.81;5012095;28;20453;-62
2022/01/12 12:17:42;;;;;;;10.88;4.97;;;;;;;3.84;54.55;99937.94;5028078;28;20037;-63
2022/01/12 12:20:13;;;;;;;10.98;5.50;;;;;;;3.97;53.59;99933.91;5047831;28;20033;-63
2022/01/12 12:22:40;;;;;;;11.07;5.40;;;;;;;4.03;53.07;99923.34;5022185;28;20623;-63
2022/01/12 12:25:11;;;;;;;10.32;5.28;;;;;;;4.19;51.68;99914.88;5022705;28;20219;-63
2022/01/12 12:27:39;;;;;;;9.63;5.18;;;;;;;4.02;51.13;99859.06;5018884;28;20548;-62
2022/01/12 12:30:08;;;;;;;10.82;5.85;;;;;;;4.53;49.43;99903.00;5021713;28;20031;-63
2022/01/12 12:32:37;;;;;;;10.02;5.18;;;;;;;4.29;48.93;99884.38;5012782;28;20085;-63
2022/01/12 12:35:06;;;;;;;9.75;5.25;;;;;;;4.46;49.73;99907.59;5011204;28;20028;-63
2022/01/12 12:37:41;;;;;;;9.88;4.88;;;;;;;4.63;50.23;99911.91;5013187;28;20022;-66
2022/01/12 12:40:25;;;;;;;9.10;4.97;;;;;;;4.61;48.84;99893.13;5037096;28;20452;-66
2022/01/12 12:43:01;;;;;;;8.80;5.28;;;;;;;4.67;50.29;99895.41;5029279;28;20147;-66